Time;durP1;ratioP1;P1;durP2;ratioP2;P2;SDS_P1;SDS_P2;PMS_P1;PMS_P2;Temp;Humidity;BMP_temperature;BMP_pressure;BME280_temperature;BME280_humidity;BME280_pressure;Samples;Min_cycle;Max_cycle;Signal;HPM_P1;HPM_P2
2021/11/16 00:00:22;;;;;;;88.70;42.38;;;9.50;98.20;;;;;;5107417;28;20423;-72
2021/11/16 00:02:48;;;;;;;86.45;41.97;;;9.40;98.00;;;;;;5105384;28;21181;-72
2021/11/16 00:05:14;;;;;;;86.53;42.28;;;9.50;98.20;;;;;;5106083;28;20415;-71
2021/11/16 00:07:40;;;;;;;84.05;41.53;;;9.40;98.10;;;;;;5106248;28;20414;-73
2021/11/16 00:10:07;;;;;;;88.90;42.47;;;9.40;98.00;;;;;;5103557;28;20408;-72
2021/11/16 00:12:33;;;;;;;87.25;42.50;;;9.40;97.90;;;;;;5105602;28;21070;-72
2021/11/16 00:14:59;;;;;;;86.90;42.28;;;9.40;97.90;;;;;;5107905;28;20389;-72
2021/11/16 00:17:24;;;;;;;87.87;42.63;;;9.40;97.80;;;;;;5104919;28;21216;-73
2021/11/16 00:19:51;;;;;;;85.88;42.67;;;9.50;98.10;;;;;;5108019;28;20435;-74
2021/11/16 00:22:18;;;;;;;86.18;42.35;;;9.40;98.20;;;;;;5104442;28;20508;-74
2021/11/16 00:27:32;;;;;;;83.28;42.35;;;9.40;98.10;;;;;;5107180;28;20412;-72
2021/11/16 00:29:58;;;;;;;86.70;42.95;;;9.40;98.10;;;;;;5105527;28;20469;-72
2021/11/16 00:32:23;;;;;;;84.43;42.20;;;9.40;98.20;;;;;;5105481;28;20754;-72
2021/11/16 00:34:49;;;;;;;85.78;41.60;;;9.40;98.60;;;;;;5089644;28;20481;-72
2021/11/16 00:37:16;;;;;;;85.93;41.37;;;9.40;98.20;;;;;;5104748;28;20461;-72
2021/11/16 00:39:42;;;;;;;79.22;41.85;;;9.40;98.10;;;;;;5089528;28;20412;-72
2021/11/16 00:42:08;;;;;;;84.55;42.45;;;9.30;97.80;;;;;;5102387;28;20412;-72
2021/11/16 00:44:34;;;;;;;84.40;42.03;;;9.30;98.00;;;;;;5105153;28;20914;-73
2021/11/16 00:46:59;;;;;;;87.17;42.83;;;9.30;98.00;;;;;;5088268;28;20498;-72
2021/11/16 00:49:25;;;;;;;84.13;42.40;;;9.30;98.00;;;;;;5107437;28;20427;-71
2021/11/16 00:51:51;;;;;;;84.20;42.45;;;9.30;98.00;;;;;;5104818;28;20408;-73
2021/11/16 00:54:17;;;;;;;84.93;42.57;;;9.30;98.00;;;;;;5105599;28;20416;-72
2021/11/16 00:56:42;;;;;;;84.97;43.75;;;9.30;98.00;;;;;;5083011;28;20934;-73
2021/11/16 00:59:08;;;;;;;88.53;42.88;;;9.40;98.10;;;;;;5087737;28;20417;-72
2021/11/16 01:01:34;;;;;;;90.07;43.10;;;9.30;98.10;;;;;;5103813;28;20423;-72
2021/11/16 01:04:00;;;;;;;88.53;44.07;;;9.30;98.00;;;;;;5083279;28;20405;-73
2021/11/16 01:06:26;;;;;;;88.53;42.78;;;9.30;98.20;;;;;;5102958;28;20419;-72
2021/11/16 01:08:52;;;;;;;88.33;43.07;;;9.40;98.10;;;;;;5105221;28;20772;-72
2021/11/16 01:11:17;;;;;;;87.95;38.67;;;9.30;98.10;;;;;;5086217;28;20298;-72
2021/11/16 01:13:43;;;;;;;84.65;37.25;;;8.90;98.50;;;;;;5106865;28;20180;-72
2021/11/16 01:16:10;;;;;;;80.95;36.92;;;8.60;99.00;;;;;;5106023;28;20188;-73
2021/11/16 01:18:36;;;;;;;86.43;37.53;;;8.50;99.30;;;;;;5104353;28;20633;-72
2021/11/16 01:21:03;;;;;;;93.55;37.58;;;8.30;99.50;;;;;;5088547;28;20264;-72
2021/11/16 01:23:28;;;;;;;92.38;42.55;;;8.10;99.70;;;;;;5102070;28;20521;-73
2021/11/16 01:25:55;;;;;;;89.57;42.00;;;8.50;99.90;;;;;;5105739;28;20410;-73
2021/11/16 01:28:27;;;;;;;86.87;42.27;;;8.80;99.30;;;;;;5087666;28;20420;-72
2021/11/16 01:30:56;;;;;;;79.78;40.72;;;8.90;98.80;;;;;;5105830;28;20492;-73
2021/11/16 01:33:28;;;;;;;80.15;39.80;;;9.00;98.70;;;;;;5101557;28;20746;-72
2021/11/16 01:35:54;;;;;;;85.90;42.07;;;9.00;98.60;;;;;;5085720;28;20421;-72
2021/11/16 01:38:22;;;;;;;88.82;42.65;;;9.10;98.50;;;;;;5104501;28;20408;-71
2021/11/16 01:40:49;;;;;;;84.82;41.42;;;9.10;98.50;;;;;;5068641;28;20983;-72
2021/11/16 01:43:15;;;;;;;87.65;42.70;;;9.10;98.30;;;;;;5086467;28;20456;-73
2021/11/16 01:45:42;;;;;;;82.97;41.55;;;9.20;98.30;;;;;;5086807;28;20432;-71
2021/11/16 01:48:10;;;;;;;86.07;42.60;;;9.20;98.00;;;;;;5102637;28;20836;-73
2021/11/16 01:50:38;;;;;;;87.20;42.35;;;9.20;97.90;;;;;;5084652;28;21254;-73
2021/11/16 01:53:04;;;;;;;85.13;43.55;;;9.20;98.00;;;;;;5078930;28;20524;-74
2021/11/16 01:55:30;;;;;;;82.70;40.63;;;9.20;98.10;;;;;;5086931;28;20896;-73
2021/11/16 01:57:56;;;;;;;85.87;42.53;;;9.20;98.10;;;;;;5083461;28;20941;-73
2021/11/16 02:00:29;;;;;;;81.75;41.28;;;9.20;98.10;;;;;;5087237;28;20407;-72
2021/11/16 02:02:55;;;;;;;86.90;42.50;;;9.20;98.20;;;;;;5102397;28;20512;-73
2021/11/16 02:05:35;;;;;;;82.03;41.70;;;9.20;98.20;;;;;;5106523;28;20408;-71
2021/11/16 02:08:01;;;;;;;87.55;42.53;;;9.20;98.00;;;;;;5102319;28;20419;-71
2021/11/16 02:10:26;;;;;;;85.33;42.43;;;9.20;97.80;;;;;;5086605;28;20408;-72
2021/11/16 02:12:52;;;;;;;83.65;42.30;;;9.20;97.40;;;;;;5069686;28;20777;-70
2021/11/16 02:15:18;;;;;;;77.82;40.63;;;9.20;97.30;;;;;;5105976;28;20404;-71
2021/11/16 02:17:45;;;;;;;83.15;42.33;;;9.20;97.30;;;;;;5104589;28;20424;-72
2021/11/16 02:20:10;;;;;;;86.03;42.20;;;9.20;97.30;;;;;;5104356;28;20960;-70
2021/11/16 02:22:36;;;;;;;90.60;43.65;;;9.20;97.30;;;;;;5098879;28;20398;-70
2021/11/16 02:25:04;;;;;;;87.23;43.97;;;9.20;97.40;;;;;;5083765;28;20450;-71
2021/11/16 02:27:29;;;;;;;84.78;41.55;;;9.20;97.60;;;;;;5084883;28;20411;-72
2021/11/16 02:29:55;;;;;;;81.43;41.50;;;9.20;97.40;;;;;;5101933;28;20408;-71
2021/11/16 02:32:21;;;;;;;82.13;41.97;;;9.30;97.40;;;;;;5102642;28;20412;-71
2021/11/16 02:34:46;;;;;;;81.30;41.83;;;9.30;97.40;;;;;;5101652;28;20855;-72
2021/11/16 02:37:12;;;;;;;81.37;41.17;;;9.30;97.40;;;;;;5103206;28;20407;-74
2021/11/16 02:39:38;;;;;;;81.60;41.20;;;9.30;97.30;;;;;;5086079;28;20445;-75
2021/11/16 02:42:04;;;;;;;87.97;43.43;;;9.30;97.40;;;;;;5081522;28;20414;-73
2021/11/16 02:44:31;;;;;;;82.07;43.05;;;9.30;97.50;;;;;;5083094;28;20451;-75
2021/11/16 02:46:57;;;;;;;82.00;42.38;;;9.30;97.40;;;;;;5082694;28;20495;-73
2021/11/16 02:49:22;;;;;;;84.70;44.33;;;9.30;97.50;;;;;;5098923;28;20504;-73
2021/11/16 02:51:48;;;;;;;85.33;43.80;;;9.30;97.40;;;;;;5075722;28;20410;-73
2021/11/16 02:54:16;;;;;;;81.10;42.60;;;9.30;97.40;;;;;;5085719;28;21061;-74
2021/11/16 02:56:43;;;;;;;86.75;43.50;;;9.30;97.30;;;;;;5100315;28;20826;-72
2021/11/16 02:59:10;;;;;;;82.43;43.42;;;9.30;97.30;;;;;;5102495;28;20811;-73
2021/11/16 03:01:36;;;;;;;81.97;43.35;;;9.30;97.20;;;;;;5085034;28;20527;-74
2021/11/16 03:04:03;;;;;;;83.72;42.85;;;9.30;97.10;;;;;;5102371;28;20415;-74
2021/11/16 03:06:29;;;;;;;81.00;42.63;;;9.30;97.20;;;;;;5082653;28;20772;-72
2021/11/16 03:08:55;;;;;;;86.80;43.63;;;9.30;97.30;;;;;;5082905;28;20984;-73
2021/11/16 03:11:21;;;;;;;86.35;44.25;;;9.30;97.30;;;;;;5093281;28;20886;-71
2021/11/16 03:13:47;;;;;;;84.78;43.65;;;9.30;97.30;;;;;;5100635;28;21052;-71
2021/11/16 03:16:19;;;;;;;86.83;43.93;;;9.30;97.10;;;;;;5101799;28;20436;-72
2021/11/16 03:18:53;;;;;;;89.18;45.05;;;9.30;97.00;;;;;;5100291;28;20913;-73
2021/11/16 03:21:24;;;;;;;84.82;43.67;;;9.30;96.80;;;;;;5096931;28;20404;-73
2021/11/16 03:23:52;;;;;;;88.18;44.55;;;9.30;96.80;;;;;;5103149;28;20823;-73
2021/11/16 03:26:20;;;;;;;88.20;44.28;;;9.30;97.00;;;;;;5097647;28;20811;-74
2021/11/16 03:28:50;;;;;;;87.17;44.43;;;9.30;97.30;;;;;;5100966;28;20416;-73
2021/11/16 03:31:40;;;;;;;88.65;45.47;;;9.30;97.10;;;;;;5068027;28;20407;-72
2021/11/16 03:34:06;;;;;;;87.38;44.20;;;9.30;97.00;;;;;;5100158;28;20467;-73
2021/11/16 03:36:32;;;;;;;87.68;45.58;;;9.30;96.80;;;;;;5098004;28;20472;-71
2021/11/16 03:39:00;;;;;;;86.28;45.03;;;9.30;97.00;;;;;;5100816;28;20417;-73
2021/11/16 03:41:26;;;;;;;88.95;46.47;;;9.30;97.20;;;;;;5100407;28;20440;-73
2021/11/16 03:43:54;;;;;;;89.87;45.10;;;9.30;97.40;;;;;;5099014;28;20408;-72
2021/11/16 03:46:21;;;;;;;92.30;46.22;;;9.30;97.30;;;;;;5071000;28;20425;-74
2021/11/16 03:48:47;;;;;;;91.20;46.25;;;9.20;97.20;;;;;;5084152;28;20436;-74
2021/11/16 03:51:13;;;;;;;92.40;47.33;;;9.30;97.40;;;;;;5080976;28;20416;-73
2021/11/16 03:53:39;;;;;;;89.33;46.33;;;9.30;97.50;;;;;;5102564;28;20880;-73
2021/11/16 03:56:04;;;;;;;89.00;46.28;;;9.30;97.50;;;;;;5101695;28;20408;-73
2021/11/16 03:58:30;;;;;;;88.53;46.03;;;9.30;97.50;;;;;;5103443;28;20428;-72
2021/11/16 04:01:00;;;;;;;91.38;45.90;;;9.30;97.60;;;;;;5097187;28;20423;-73
2021/11/16 04:03:28;;;;;;;91.70;47.17;;;9.30;97.40;;;;;;5085171;28;20415;-73
2021/11/16 04:05:54;;;;;;;93.30;47.47;;;9.30;97.30;;;;;;5077269;28;20476;-73
2021/11/16 04:08:20;;;;;;;92.97;47.60;;;9.30;97.30;;;;;;5084476;28;20420;-73
2021/11/16 04:10:47;;;;;;;91.40;47.27;;;9.30;97.30;;;;;;5084395;28;20423;-72
2021/11/16 04:13:13;;;;;;;93.40;46.30;;;9.30;97.30;;;;;;5101762;28;20436;-74
2021/11/16 04:15:39;;;;;;;92.25;46.75;;;9.20;97.30;;;;;;5103310;28;20447;-73
2021/11/16 04:18:06;;;;;;;88.28;46.90;;;9.20;97.40;;;;;;5083194;28;20461;-72
2021/11/16 04:20:38;;;;;;;92.43;47.63;;;9.20;97.20;;;;;;5079974;28;20410;-74
2021/11/16 04:23:07;;;;;;;94.17;47.10;;;9.20;97.30;;;;;;5077832;28;20420;-73
2021/11/16 04:25:34;;;;;;;89.13;46.55;;;9.20;97.10;;;;;;5065370;28;20439;-73
2021/11/16 04:28:02;;;;;;;93.00;47.70;;;9.20;97.00;;;;;;5101723;28;20408;-72
2021/11/16 04:30:28;;;;;;;94.75;47.65;;;9.20;97.20;;;;;;5102057;28;20956;-73
2021/11/16 04:32:55;;;;;;;97.67;48.30;;;9.20;97.40;;;;;;5084419;28;20444;-74
2021/11/16 04:35:21;;;;;;;90.45;46.80;;;9.20;97.30;;;;;;5084782;28;20782;-73
2021/11/16 04:37:49;;;;;;;92.05;47.47;;;9.20;97.20;;;;;;5102971;28;20411;-73
2021/11/16 04:40:19;;;;;;;92.60;47.45;;;9.20;97.10;;;;;;5098191;28;20461;-73
2021/11/16 04:42:45;;;;;;;93.27;46.40;;;9.20;97.30;;;;;;5101861;28;20412;-74
2021/11/16 04:45:18;;;;;;;91.50;47.05;;;9.20;97.30;;;;;;5105556;28;20469;-73
2021/11/16 04:47:54;;;;;;;90.80;47.08;;;9.20;97.30;;;;;;5083496;28;20971;-73
2021/11/16 04:50:55;;;;;;;88.63;45.97;;;9.20;97.40;;;;;;5105661;28;20451;-73
2021/11/16 04:53:52;;;;;;;94.10;47.83;;;9.20;97.40;;;;;;5106546;28;20742;-72
2021/11/16 05:04:17;;;;;;;92.18;46.85;;;9.20;97.20;;;;;;5105268;28;20408;-74
2021/11/16 05:06:44;;;;;;;90.68;47.17;;;9.20;97.20;;;;;;5087773;28;20442;-73
2021/11/16 05:09:10;;;;;;;94.67;46.63;;;9.20;97.30;;;;;;5102404;28;20924;-73
2021/11/16 05:11:36;;;;;;;98.60;49.83;;;9.20;97.40;;;;;;5095631;28;20502;-74
2021/11/16 05:14:01;;;;;;;93.93;48.13;;;9.20;97.50;;;;;;5101986;28;20607;-73
2021/11/16 05:16:27;;;;;;;98.18;48.65;;;9.20;97.40;;;;;;5087462;28;20794;-72
2021/11/16 05:18:53;;;;;;;98.47;48.57;;;9.20;97.40;;;;;;5105114;28;20420;-73
2021/11/16 05:21:19;;;;;;;95.97;47.25;;;9.20;97.50;;;;;;5099674;28;23249;-74
2021/11/16 05:23:56;;;;;;;94.35;47.28;;;9.20;97.40;;;;;;5102167;28;20458;-73
2021/11/16 05:26:24;;;;;;;95.47;48.47;;;9.20;97.30;;;;;;5102729;28;20414;-73
2021/11/16 05:28:50;;;;;;;97.43;47.77;;;9.20;97.20;;;;;;5105929;28;21248;-74
2021/11/16 05:31:17;;;;;;;98.90;49.05;;;9.30;97.20;;;;;;5101467;28;20485;-74
2021/11/16 05:33:44;;;;;;;91.70;48.15;;;9.20;97.20;;;;;;5105613;28;20411;-74
2021/11/16 05:36:10;;;;;;;93.95;47.83;;;9.20;97.00;;;;;;5101315;28;20408;-75
2021/11/16 05:38:39;;;;;;;95.37;48.27;;;9.30;97.00;;;;;;5104189;28;20443;-73
2021/11/16 05:41:06;;;;;;;96.57;48.72;;;9.30;97.00;;;;;;5086632;28;20424;-73
2021/11/16 05:43:32;;;;;;;94.07;48.20;;;9.20;96.80;;;;;;5103904;28;20897;-74
2021/11/16 05:45:59;;;;;;;95.55;48.47;;;9.20;96.70;;;;;;5084200;28;20425;-72
2021/11/16 05:48:32;;;;;;;92.75;48.35;;;9.20;96.70;;;;;;5098987;28;20461;-75
2021/11/16 05:50:58;;;;;;;97.70;48.72;;;9.20;96.60;;;;;;5101572;28;21201;-73
2021/11/16 05:53:23;;;;;;;93.05;48.63;;;9.20;96.50;;;;;;5095133;28;20409;-73
2021/11/16 05:55:49;;;;;;;93.93;48.50;;;9.20;96.50;;;;;;5101793;28;20408;-74
2021/11/16 05:58:17;;;;;;;91.35;47.53;;;9.20;96.40;;;;;;5101821;28;20419;-74
2021/11/16 06:00:43;;;;;;;92.82;47.47;;;9.20;96.40;;;;;;5070183;28;20408;-73
2021/11/16 06:03:10;;;;;;;96.32;49.00;;;9.20;96.50;;;;;;5066957;28;20423;-74
2021/11/16 06:05:36;;;;;;;92.30;47.90;;;9.20;96.50;;;;;;5087831;28;20408;-71
2021/11/16 06:08:01;;;;;;;92.03;47.53;;;9.20;96.40;;;;;;5100890;28;20426;-73
2021/11/16 06:10:27;;;;;;;93.18;47.95;;;9.20;96.30;;;;;;5085520;28;20404;-71
2021/11/16 06:12:53;;;;;;;96.80;48.53;;;9.20;96.30;;;;;;5103122;28;20408;-73
2021/11/16 06:15:18;;;;;;;94.22;48.63;;;9.20;96.50;;;;;;5104179;28;20404;-72
2021/11/16 06:17:45;;;;;;;95.53;48.60;;;9.20;96.50;;;;;;5091854;28;20787;-74
2021/11/16 06:20:13;;;;;;;94.90;48.78;;;9.20;96.50;;;;;;5104763;28;20412;-72
2021/11/16 06:22:38;;;;;;;90.60;46.55;;;9.20;96.60;;;;;;5083826;28;20441;-73
2021/11/16 06:25:04;;;;;;;92.22;47.20;;;9.10;96.30;;;;;;5079718;28;20483;-73
2021/11/16 06:27:30;;;;;;;90.78;47.85;;;9.10;96.20;;;;;;5095503;28;20446;-73
2021/11/16 06:29:56;;;;;;;94.67;48.70;;;9.10;96.50;;;;;;5077233;28;21100;-72
2021/11/16 06:32:21;;;;;;;92.32;47.35;;;9.10;96.60;;;;;;5084427;28;20939;-73
2021/11/16 06:34:47;;;;;;;93.03;46.60;;;9.10;96.60;;;;;;5095157;28;20400;-72
2021/11/16 06:37:13;;;;;;;96.05;48.30;;;9.10;96.40;;;;;;5084301;28;20412;-72
2021/11/16 06:39:38;;;;;;;96.82;48.33;;;9.10;96.60;;;;;;5101584;28;20523;-72
2021/11/16 06:42:04;;;;;;;98.43;47.87;;;9.10;96.40;;;;;;5101407;28;22082;-73
2021/11/16 06:44:30;;;;;;;96.75;48.17;;;9.10;96.50;;;;;;5100750;28;20466;-71
2021/11/16 06:46:57;;;;;;;94.07;48.00;;;9.00;96.80;;;;;;5079118;28;20443;-73
2021/11/16 06:49:23;;;;;;;93.97;47.00;;;9.10;97.10;;;;;;5085250;28;20995;-73
2021/11/16 06:51:52;;;;;;;100.50;49.08;;;9.00;97.00;;;;;;5083469;28;20411;-72
2021/11/16 06:54:23;;;;;;;100.23;48.93;;;9.00;96.90;;;;;;5101973;28;20426;-72
2021/11/16 06:56:50;;;;;;;93.50;47.20;;;9.00;96.70;;;;;;5097179;28;20404;-72
2021/11/16 06:59:21;;;;;;;94.70;48.78;;;9.00;96.50;;;;;;5102159;28;20419;-72
2021/11/16 07:01:49;;;;;;;97.72;48.90;;;9.00;96.80;;;;;;5100640;28;20416;-72
2021/11/16 07:04:15;;;;;;;97.75;48.17;;;9.00;97.30;;;;;;5079544;28;20408;-71
2021/11/16 07:06:44;;;;;;;95.83;48.23;;;9.00;97.40;;;;;;5101646;28;20408;-72
2021/11/16 07:09:12;;;;;;;99.97;49.37;;;9.00;97.30;;;;;;5101860;28;20859;-72
2021/11/16 07:11:57;;;;;;;100.63;50.38;;;9.00;97.40;;;;;;5099904;28;20485;-73
2021/11/16 07:14:36;;;;;;;100.78;49.33;;;9.00;97.40;;;;;;5084638;28;20806;-70
2021/11/16 07:17:04;;;;;;;100.38;49.05;;;9.00;97.40;;;;;;5062549;28;20445;-70
2021/11/16 07:19:32;;;;;;;102.65;50.50;;;9.00;97.40;;;;;;5084362;28;20410;-70
2021/11/16 07:22:03;;;;;;;97.18;48.40;;;9.10;97.50;;;;;;5080242;28;20411;-70
2021/11/16 07:24:30;;;;;;;92.57;47.22;;;9.10;97.50;;;;;;5076083;28;20850;-71
2021/11/16 07:27:03;;;;;;;93.80;45.90;;;9.10;97.40;;;;;;5083797;28;20477;-72
2021/11/16 07:29:34;;;;;;;94.93;46.70;;;9.10;96.80;;;;;;5104172;28;20428;-73
2021/11/16 07:32:02;;;;;;;102.18;49.15;;;9.10;97.00;;;;;;5099849;28;20790;-73
2021/11/16 07:34:30;;;;;;;102.07;48.95;;;9.10;97.20;;;;;;5104843;28;20396;-72
2021/11/16 07:36:57;;;;;;;100.57;47.83;;;9.10;97.10;;;;;;5102162;28;20473;-73
2021/11/16 07:39:25;;;;;;;96.28;47.70;;;9.10;97.00;;;;;;5102552;28;20869;-71
2021/11/16 07:42:02;;;;;;;96.55;48.50;;;9.10;96.90;;;;;;5080046;28;20923;-70
2021/11/16 07:44:27;;;;;;;99.43;47.83;;;9.10;96.80;;;;;;5100660;28;20436;-72
2021/11/16 07:46:55;;;;;;;96.43;48.17;;;9.10;96.90;;;;;;5083460;28;20432;-71
2021/11/16 07:49:22;;;;;;;99.35;48.05;;;9.10;96.90;;;;;;5101278;28;21014;-70
2021/11/16 07:51:50;;;;;;;99.75;48.80;;;9.10;96.70;;;;;;5100532;28;20408;-73
2021/11/16 07:54:28;;;;;;;95.73;48.03;;;9.10;96.90;;;;;;5102753;28;20422;-73
2021/11/16 07:57:04;;;;;;;101.35;49.10;;;9.10;96.60;;;;;;5099468;28;20417;-72
2021/11/16 07:59:30;;;;;;;102.80;48.67;;;9.10;96.50;;;;;;5099884;28;20891;-73
2021/11/16 08:02:05;;;;;;;99.17;49.20;;;9.10;96.70;;;;;;5080190;28;20420;-72
2021/11/16 08:09:51;;;;;;;100.38;49.92;;;9.10;96.50;;;;;;5099000;28;20827;-71
2021/11/16 08:14:46;;;;;;;104.07;49.87;;;9.10;96.60;;;;;;5082969;28;20503;-74
2021/11/16 08:17:13;;;;;;;102.90;50.43;;;9.10;96.60;;;;;;5098756;28;20411;-75
2021/11/16 08:19:41;;;;;;;108.87;51.57;;;9.00;96.60;;;;;;5103901;28;20404;-75
2021/11/16 08:22:10;;;;;;;107.10;51.27;;;9.00;96.90;;;;;;5085228;28;20752;-74
2021/11/16 08:24:39;;;;;;;105.15;51.05;;;9.00;97.00;;;;;;5099039;28;20445;-74
2021/11/16 08:27:33;;;;;;;112.22;52.05;;;9.00;97.00;;;;;;5092752;28;20409;-74
2021/11/16 08:30:02;;;;;;;107.32;51.42;;;9.00;97.00;;;;;;5103284;28;20428;-73
2021/11/16 08:32:36;;;;;;;107.47;51.78;;;9.00;96.90;;;;;;5099743;28;20463;-73
2021/11/16 08:35:08;;;;;;;110.10;51.67;;;9.00;96.80;;;;;;5105430;28;20416;-73
2021/11/16 08:37:38;;;;;;;113.88;51.55;;;9.00;96.90;;;;;;5101927;28;20420;-72
2021/11/16 08:40:24;;;;;;;108.80;51.97;;;9.00;97.30;;;;;;5085988;28;20423;-74
2021/11/16 08:43:00;;;;;;;110.63;50.90;;;9.00;97.00;;;;;;5103568;28;20423;-74
2021/11/16 08:45:31;;;;;;;109.07;50.83;;;9.00;96.70;;;;;;5084222;28;20422;-75
2021/11/16 08:48:10;;;;;;;107.40;51.00;;;8.90;96.60;;;;;;5086449;28;20415;-74
2021/11/16 08:50:47;;;;;;;113.20;51.40;;;8.90;96.70;;;;;;5085897;28;20420;-74
2021/11/16 08:53:17;;;;;;;106.33;50.80;;;8.80;96.80;;;;;;5103247;28;20427;-75
2021/11/16 08:55:43;;;;;;;109.88;50.55;;;8.80;97.10;;;;;;5082139;28;20486;-73
2021/11/16 08:58:13;;;;;;;113.50;50.90;;;8.80;97.10;;;;;;5098823;28;20501;-75
2021/11/16 09:00:49;;;;;;;104.68;49.65;;;8.90;97.40;;;;;;5091453;28;20409;-74
2021/11/16 09:03:29;;;;;;;105.90;50.90;;;8.90;97.20;;;;;;5097951;28;20409;-74
2021/11/16 09:05:56;;;;;;;105.00;51.35;;;8.90;97.20;;;;;;5087427;28;20901;-74
2021/11/16 09:08:32;;;;;;;105.93;51.27;;;8.90;97.40;;;;;;5103623;28;20418;-75
2021/11/16 09:11:09;;;;;;;101.93;49.85;;;9.00;97.50;;;;;;5102282;28;20420;-74
2021/11/16 09:13:35;;;;;;;109.55;50.40;;;9.00;97.30;;;;;;5101171;28;20934;-75
2021/11/16 09:16:16;;;;;;;103.78;49.53;;;9.10;97.30;;;;;;5086915;28;20437;-73
2021/11/16 09:18:45;;;;;;;102.15;48.72;;;9.10;97.10;;;;;;5087352;28;20939;-75
2021/11/16 09:21:13;;;;;;;108.28;50.15;;;9.10;97.20;;;;;;5101047;28;20412;-74
2021/11/16 09:23:48;;;;;;;106.55;50.95;;;9.10;97.30;;;;;;5103559;28;20862;-73
2021/11/16 09:29:10;;;;;;;111.22;51.35;;;9.10;97.20;;;;;;5059602;28;21197;-73
2021/11/16 09:31:49;;;;;;;105.72;50.75;;;9.20;97.30;;;;;;5096764;28;20437;-71
2021/11/16 09:34:18;;;;;;;110.97;51.05;;;9.20;97.20;;;;;;5104966;28;20439;-73
2021/11/16 09:36:58;;;;;;;110.38;50.55;;;9.20;97.20;;;;;;5070741;28;20505;-74
2021/11/16 09:39:31;;;;;;;104.15;49.75;;;9.20;97.20;;;;;;5086408;28;20499;-74
2021/11/16 09:41:59;;;;;;;99.77;48.23;;;9.20;97.10;;;;;;5085429;28;20424;-73
2021/11/16 09:44:29;;;;;;;103.75;47.47;;;9.20;96.90;;;;;;5083828;28;20962;-74
2021/11/16 09:47:00;;;;;;;104.57;48.78;;;9.20;96.60;;;;;;5100015;28;20404;-73
2021/11/16 09:49:38;;;;;;;102.50;49.08;;;9.20;96.70;;;;;;5105623;28;20514;-72
2021/11/16 09:52:07;;;;;;;104.87;49.03;;;9.10;96.60;;;;;;5086601;28;20403;-74
2021/11/16 09:54:45;;;;;;;104.38;49.42;;;9.10;96.60;;;;;;5087036;28;20424;-73
2021/11/16 09:57:13;;;;;;;101.65;48.30;;;9.10;96.90;;;;;;5102137;28;20407;-73
2021/11/16 09:59:41;;;;;;;100.23;48.00;;;9.10;96.60;;;;;;5094765;28;20439;-73
2021/11/16 10:02:13;;;;;;;102.60;48.50;;;9.10;96.90;;;;;;5082571;28;20420;-73
2021/11/16 10:04:46;;;;;;;107.07;49.83;;;9.10;97.20;;;;;;5086185;28;20431;-73
2021/11/16 10:07:13;;;;;;;102.50;47.72;;;9.10;97.60;;;;;;5084262;28;20546;-72
2021/11/16 10:09:41;;;;;;;93.05;45.85;;;9.10;97.50;;;;;;5080870;28;20406;-74
2021/11/16 10:12:08;;;;;;;95.35;45.90;;;9.10;97.00;;;;;;5096760;28;20733;-74
2021/11/16 10:14:33;;;;;;;96.75;45.40;;;9.10;96.90;;;;;;5097567;28;20410;-75
2021/11/16 10:16:59;;;;;;;95.50;45.10;;;9.10;96.70;;;;;;5085081;28;20502;-73
2021/11/16 10:19:25;;;;;;;97.68;46.50;;;9.10;96.80;;;;;;5101048;28;20427;-73
2021/11/16 10:21:51;;;;;;;99.47;46.87;;;9.10;97.00;;;;;;5100710;28;20451;-73
2021/11/16 10:24:26;;;;;;;98.80;46.35;;;9.10;97.10;;;;;;5102917;28;20419;-74
2021/11/16 10:26:56;;;;;;;99.50;45.05;;;9.10;96.90;;;;;;5097934;28;20441;-74
2021/11/16 10:29:22;;;;;;;94.00;45.67;;;9.10;96.80;;;;;;5099827;28;20430;-74
2021/11/16 10:31:48;;;;;;;98.32;45.10;;;9.10;96.80;;;;;;5067319;28;20767;-72
2021/11/16 10:34:14;;;;;;;93.22;44.45;;;9.10;97.10;;;;;;5077266;28;20406;-74
2021/11/16 10:36:40;;;;;;;94.50;44.23;;;9.10;97.10;;;;;;5100240;28;20772;-75
2021/11/16 10:39:05;;;;;;;92.93;44.53;;;9.00;96.90;;;;;;5103967;28;20418;-74
2021/11/16 10:41:34;;;;;;;93.07;44.10;;;9.00;96.80;;;;;;5101624;28;20412;-73
2021/11/16 10:44:08;;;;;;;93.22;43.25;;;9.00;96.90;;;;;;5085912;28;20404;-75
2021/11/16 10:46:40;;;;;;;95.60;44.05;;;9.00;96.90;;;;;;5099958;28;20404;-73
2021/11/16 10:49:10;;;;;;;92.35;42.75;;;9.00;97.10;;;;;;5099310;28;20499;-74
2021/11/16 10:51:38;;;;;;;96.20;43.15;;;9.00;97.30;;;;;;5073194;28;20408;-74
2021/11/16 10:54:06;;;;;;;91.07;42.50;;;9.00;96.80;;;;;;5103018;28;20419;-74
2021/11/16 10:56:36;;;;;;;92.53;42.08;;;9.00;96.70;;;;;;5081644;28;20907;-74
2021/11/16 10:59:06;;;;;;;90.17;42.03;;;9.00;96.90;;;;;;5102886;28;20423;-73
2021/11/16 11:01:41;;;;;;;96.68;43.33;;;9.00;96.90;;;;;;5082224;28;20399;-73
2021/11/16 11:04:14;;;;;;;97.53;45.30;;;9.00;97.00;;;;;;5094311;28;20419;-73
2021/11/16 11:06:43;;;;;;;98.63;43.72;;;9.00;97.30;;;;;;5084992;28;20416;-74
2021/11/16 11:09:09;;;;;;;96.70;42.95;;;9.00;97.30;;;;;;5078995;28;20412;-74
2021/11/16 11:11:41;;;;;;;91.32;43.28;;;9.00;97.10;;;;;;5076315;28;20400;-75
2021/11/16 11:14:21;;;;;;;96.80;43.58;;;8.90;97.10;;;;;;5083115;28;20439;-73
2021/11/16 11:17:00;;;;;;;92.45;42.53;;;8.90;97.30;;;;;;5099432;28;20944;-76
2021/11/16 11:19:53;;;;;;;93.78;42.55;;;8.90;97.50;;;;;;5068834;28;20446;-74
2021/11/16 11:25:04;;;;;;;94.83;42.13;;;9.00;97.20;;;;;;5096897;28;20486;-75
2021/11/16 11:27:34;;;;;;;93.47;42.20;;;8.90;97.10;;;;;;5085409;28;20473;-77
2021/11/16 11:30:02;;;;;;;94.68;41.75;;;9.00;97.90;;;;;;5096170;28;20425;-76
2021/11/16 11:32:40;;;;;;;88.78;41.33;;;9.00;97.60;;;;;;5081643;28;20416;-75
2021/11/16 11:35:10;;;;;;;95.47;42.28;;;9.00;97.40;;;;;;5095039;28;20468;-74
2021/11/16 11:37:37;;;;;;;91.20;41.45;;;9.00;97.20;;;;;;5077496;28;20424;-74
2021/11/16 11:40:17;;;;;;;98.10;42.23;;;8.90;97.10;;;;;;5069424;28;20496;-75
2021/11/16 11:43:01;;;;;;;93.18;41.42;;;8.90;97.40;;;;;;5102402;28;20419;-74
2021/11/16 11:45:34;;;;;;;92.65;41.08;;;8.90;97.40;;;;;;5099356;28;20898;-74
2021/11/16 11:48:03;;;;;;;91.03;40.53;;;8.90;97.60;;;;;;5097290;28;20521;-75
2021/11/16 11:50:37;;;;;;;96.13;42.22;;;8.90;97.70;;;;;;5063910;28;20413;-75
2021/11/16 11:53:06;;;;;;;96.70;42.30;;;8.90;97.70;;;;;;5086116;28;21030;-75
2021/11/16 11:55:34;;;;;;;95.25;42.30;;;8.90;97.90;;;;;;5102428;28;20512;-75
2021/11/16 11:58:02;;;;;;;95.72;42.40;;;8.90;98.00;;;;;;5090327;28;20503;-74
2021/11/16 12:00:29;;;;;;;93.90;40.92;;;9.00;98.00;;;;;;5101414;28;20406;-75
2021/11/16 12:02:56;;;;;;;95.40;42.00;;;9.00;97.80;;;;;;5088702;28;20451;-74
2021/11/16 12:05:29;;;;;;;92.37;41.13;;;9.00;98.00;;;;;;5090381;28;20432;-74
2021/11/16 12:07:55;;;;;;;93.23;41.47;;;9.00;97.90;;;;;;5102631;28;20900;-74
2021/11/16 12:10:21;;;;;;;95.57;41.00;;;9.00;97.90;;;;;;5093360;28;20415;-73
2021/11/16 12:12:48;;;;;;;92.15;41.58;;;9.10;98.10;;;;;;5108142;28;20500;-75
2021/11/16 12:15:30;;;;;;;95.97;40.63;;;9.00;98.10;;;;;;5090626;28;21238;-74
2021/11/16 12:17:58;;;;;;;89.15;40.05;;;9.00;98.00;;;;;;5102778;28;20427;-73
2021/11/16 12:20:59;;;;;;;99.20;41.45;;;9.00;98.00;;;;;;5100907;28;20418;-73
2021/11/16 12:23:46;;;;;;;94.32;41.17;;;8.90;98.10;;;;;;5057465;28;20427;-74
2021/11/16 12:26:14;;;;;;;102.40;41.45;;;8.90;98.10;;;;;;5073977;28;20420;-73
2021/11/16 12:28:41;;;;;;;94.03;41.03;;;8.90;98.40;;;;;;5105223;28;20489;-73
2021/11/16 12:31:10;;;;;;;96.47;41.58;;;8.90;98.20;;;;;;5110277;28;20510;-74
2021/11/16 12:33:44;;;;;;;102.70;41.50;;;8.80;98.50;;;;;;5100402;28;20403;-73
2021/11/16 12:36:13;;;;;;;100.50;42.05;;;8.80;98.70;;;;;;5101005;28;20412;-73
2021/11/16 12:38:42;;;;;;;98.73;41.77;;;8.80;98.60;;;;;;5108052;28;20676;-73
2021/11/16 12:41:26;;;;;;;97.30;41.83;;;8.80;98.80;;;;;;5089557;28;20480;-74
2021/11/16 12:43:53;;;;;;;101.15;41.97;;;8.80;98.60;;;;;;5106711;28;20933;-76
2021/11/16 12:46:19;;;;;;;96.40;41.75;;;8.80;98.40;;;;;;5091620;28;20415;-74
2021/11/16 12:48:52;;;;;;;94.40;40.22;;;8.80;98.40;;;;;;5086624;28;20457;-75
2021/11/16 12:51:25;;;;;;;98.60;42.05;;;8.80;98.50;;;;;;5109077;28;20425;-74
2021/11/16 12:54:03;;;;;;;98.00;41.75;;;8.80;98.60;;;;;;5086206;28;20435;-76
2021/11/16 12:56:45;;;;;;;101.33;42.03;;;8.70;98.70;;;;;;5109851;28;20766;-74
2021/11/16 12:59:15;;;;;;;96.32;40.95;;;8.70;98.80;;;;;;5086635;28;20412;-75
2021/11/16 13:01:49;;;;;;;101.75;42.15;;;8.70;98.90;;;;;;5102304;28;20756;-74
2021/11/16 13:04:19;;;;;;;99.32;41.47;;;8.70;99.20;;;;;;5109142;28;20404;-75
2021/11/16 13:07:23;;;;;;;95.20;41.38;;;8.70;99.50;;;;;;5102676;28;20500;-74
2021/11/16 13:10:14;;;;;;;95.50;40.05;;;8.70;99.60;;;;;;5099513;28;20422;-75